Airfield :
LOGIN :

Register | Disclaimer

   EN    FR    IT 

 










Legend :    VFR   Marginal VFR   IFR   Intensive IFR   Very Intensive IFR
Visi :
Ceiling :
>= 8 km
>= 3000ft
5 to 8 km
1000 to 3000 ft
1500m to 5 km
500 to 1000 ft
800 to 1500m
200 to 500 ft
< 800m
< 200 ft
Symbols :   Thunderstorms  Fog  Heavy snow  Heavy precipitations  Wind > 20 kt
SIGMETs :     Misc.  Thunderstorms  Icing  Turbulence  Mountain Waves  Volcanic Ashes







- Airport Elevation : 160 ft
- IATA code : LRT
- Download approach charts


LFRH - Lorient Lann Bihoue

CURRENT METAR :
  • 252100Z AUTO 07016KT CAVOK 11/06 Q1015 BECMG 05020G30KT

EXPIRED METARs :
  • 252030Z AUTO 06015KT CAVOK 11/06 Q1014 BECMG 05020G30KT
  • 252000Z AUTO 05014KT CAVOK 11/06 Q1014 BECMG 05020G30KT
  • 251930Z AUTO 06015KT CAVOK 11/06 Q1014 BECMG 05020G30KT
  • 251900Z AUTO 05016KT CAVOK 11/06 Q1014 BECMG 05020G30KT
  • 251830Z AUTO 05016KT CAVOK 12/06 Q1014 BECMG 05020G30KT

TAF TAF LFRH
Valid from the 25 at 18:00 until the 26 at 18:00 UTC


251700Z 2518/2618 05020G30KT CAVOK
TEMPO 2522/2524 BKN035
BECMG 2600/2602 06010KT
PROB30
TEMPO 2603/2606 3000 BR
BECMG 2611/2613 12015KT
No reported NOTAMs for that airfield.
2 SIGMETs reported for the Brest FIR (LFRR) :
 
Severe turbulence
LFRR SIGMET 4 VALID 252000/252300 LFPW
LFRR BREST FIR/UIR SEV TURB FCST WI N4700 W00800 - N4900 W00800 - N5000 W00200 - N5000 W00030 - N4930 W00030 SFC/FL040 STNR WKN=
Severe turbulence
LFRR SIGMET 3 VALID 252000/252300 LFPW
LFRR BREST FIR/UIR SEV TURB FCST WI N4515 W00145 - N4400 W00145 - N4415 W00330 - N4515 W00315 FL160/230 STNR NC=



MET'MAP, your aeronautical weather chart ! - Copyright ORBIFLY December 2007 - Disclaimer

ORBIFLY MET'MAP TEAM :

Programming & Development : Alexandra Zaïnal
Concept & Development : Baudouin d'Aumeries
Co-Development & Prog : Marc-Olivier Méhu
Technical & hardware support : Manuel Goepfert

Contact : metmap@orbifly.com




SOURCES & CREDITS :

   NOAA